Share

Amorita, OK

6:19 PM CDT on April 23, 2014 (GMT -0500)
West (KOKCHERO2) Elev 1201 ft | 36.75 °N, 98.36 °W | Change Station
Active Advisory: Severe Thunderstorm Watch

Current weather conditions updated 47 seconds ago

Clear
Clear
80.9 °F
Feels Like 81 °F
N
27.0
Wind Variable Wind from SSE
Sunrise 6:48 AM
Sunset 8:14 PM
Moon Waning Crescent

Tomorrow is forecast to be Much Cooler than today. Thunderstorms early.

Pressure 29.59 in
Visibility 10.0 miles
Clouds Clear
Heat Index 81 °F
Dew Point 57 °F
Humidity 44%
Rainfall 0.00 in
Snow Depth Not available.
UV 0.0 out of 16
Pollen 11.60 out of 12
Air Quality Not available.
Flu Activity Regional
METAR KAVK 232255Z AUTO 16024G30KT 10SM CLR 27/13 A2959 RMK AO2

More Conditions Fewer Conditions

Pressure 29.59 in
Visibility 10.0 miles
Clouds Clear
Heat Index 81 °F
Dew Point 57 °F
Humidity 44%
Rainfall 0.00 in
Snow Depth Not available.
UV 0.0 out of 16
Pollen 11.60 out of 12
Air Quality Not available.
Flu Activity Regional
METAR KAVK 232255Z AUTO 16024G30KT 10SM CLR 27/13 A2959 RMK AO2

More Conditions Fewer Conditions

10-Day Weather Forecast

Almanac

Astronomy

Apr. 23, 2014 Rise Set
Actual Time 6:48 AM CDT 8:14 PM CDT
Civil Twilight 6:20 AM CDT 8:42 PM CDT
Nautical Twilight 5:48 AM CDT 9:14 PM CDT
Astronomical Twilight 5:13 AM CDT 9:49 PM CDT
Moon 3:11 AM CDT 2:33 PM CDT
Length of Visible Light 14h 21m
Length of Day
13h 26m
Tomorrow will be 2m 8s longer.
Waning Crescent, 32% of the Moon is Illuminated
Today
Waning Crescent
Apr 29
New
May 6
First Quarter
May 14
Full
May 21
Last Quarter

Today's Extremes

State Highs State Lows

Community

  • Nestled In
    Nestled In
  • Stunning Sunrise
    Stunning Sunrise
  • spring flowers
    spring flowers
  • Earth Day Spectrum Ove' Blue
    Earth Day Spectrum Ove' Blue
  • BARN B&W
    BARN B&W

WunderPhotos

Upload Photos

1,704,454 photos uploaded!

WunderBlogs® & News

Nearby

Snow Depth

Station Depth Elevation
No new snow has been reported.

Coastal Water Temperatures

Place Temperature
No Stations Reporting

Earthquake Activity

City Distance Mag. Time & Date
Stillwater, Oklahoma 89 miles 2.8 5:30 PM CDT
2014-04-19
Enid, Oklahoma 32 miles 2.9 1:11 PM CDT
2014-04-19
Perry, Oklahoma 71 miles 4.0 5:43 AM CDT
2014-04-19
Stillwater, Oklahoma 90 miles 2.7 3:40 AM CDT
2014-04-19
Minimum magnitude displayed is 2.5.

Nearby Weather Stations

Station Location Temp. Heat Index Dew Point Humidity Wind Precip. Elev Updated Type
DDMET Byron, OK, Amorita, OK 83 °F 82 °F 56 °F 39% North  at  - 0.00 in / hr 1182 ft 4:57 PM CDT MADIS
West, Cherokee, OK 80.9 °F 81 °F 57 °F 44% SSE  at  27.0 mph - / hr 1201 ft 6:18 PM CDT Normal
Amateur Radio W5PDB, Jet, OK 79.9 °F 79 °F 36 °F 21% SSE  at  24.0 mph 0.00 in / hr 1280 ft 6:18 PM CDT Rapid Fire

Show More Stations Show Fewer Stations

What do you think?

We're not finished. Please let us know what you like, what you don't like, and what you are still missing.